createdAt,value
2022-12-11T00:00:38.994Z,60.69
2022-12-11T00:05:42.308Z,60.54
2022-12-11T00:10:50.364Z,60.95
2022-12-11T00:15:51.991Z,61.10
2022-12-11T00:20:53.722Z,61.09
2022-12-11T00:25:55.395Z,60.65
2022-12-11T00:30:56.997Z,60.59
2022-12-11T00:35:58.763Z,60.60
2022-12-11T00:41:00.397Z,60.74
2022-12-11T00:46:02.426Z,60.93
2022-12-11T00:51:04.451Z,60.59
2022-12-11T00:56:10.721Z,60.76
2022-12-11T01:01:16.113Z,60.99
2022-12-11T01:06:21.079Z,61.04
2022-12-11T01:11:22.655Z,61.16
2022-12-11T01:16:24.263Z,61.07
2022-12-11T01:21:26.154Z,61.24
2022-12-11T01:26:27.885Z,61.28
2022-12-11T01:31:29.589Z,61.38
2022-12-11T01:36:31.194Z,61.25
2022-12-11T01:41:32.991Z,61.12
2022-12-11T01:46:36.321Z,61.14
2022-12-11T01:52:01.519Z,61.17
2022-12-11T01:57:06.706Z,61.15
2022-12-11T02:02:22.640Z,61.25
2022-12-11T02:07:24.357Z,61.42
2022-12-11T02:12:47.694Z,61.80
2022-12-11T02:18:15.014Z,61.47
2022-12-11T02:23:32.765Z,61.72
2022-12-11T02:29:09.946Z,61.64
2022-12-11T02:34:39.837Z,61.80
2022-12-11T02:39:44.438Z,61.62
2022-12-11T02:44:48.816Z,61.85
2022-12-11T02:49:52.067Z,61.75
2022-12-11T02:54:58.109Z,62.27
2022-12-11T02:59:59.960Z,62.21
2022-12-11T03:05:01.611Z,62.16
2022-12-11T03:10:06.354Z,61.82
2022-12-11T03:15:13.961Z,61.94
2022-12-11T03:20:51.179Z,62.13
2022-12-11T03:25:59.509Z,62.03
2022-12-11T03:31:07.680Z,62.04
2022-12-11T03:36:21.011Z,62.26
2022-12-11T03:41:25.390Z,61.94
2022-12-11T03:46:33.470Z,62.09
2022-12-11T03:51:36.408Z,61.86
2022-12-11T03:56:40.069Z,61.99
2022-12-11T04:01:41.707Z,62.25
2022-12-11T04:06:43.494Z,62.28
2022-12-11T04:11:45.148Z,62.60
2022-12-11T04:16:46.840Z,62.49
2022-12-11T04:22:07.094Z,62.89
2022-12-11T04:27:08.926Z,62.80
2022-12-11T04:32:10.559Z,62.91
2022-12-11T04:37:12.132Z,62.83
2022-12-11T04:42:13.786Z,62.99
2022-12-11T04:47:15.383Z,62.98
2022-12-11T04:52:18.209Z,62.99
2022-12-11T04:57:21.577Z,62.75
2022-12-11T05:02:23.308Z,62.88
2022-12-11T05:07:24.918Z,62.71
2022-12-11T05:12:26.520Z,62.73
2022-12-11T05:17:28.125Z,62.94
2022-12-11T05:22:31.658Z,62.86
2022-12-11T05:27:33.952Z,63.10
2022-12-11T05:32:35.662Z,62.90
2022-12-11T05:37:37.751Z,62.79
2022-12-11T05:42:39.345Z,62.93
2022-12-11T05:47:41.025Z,63.06
2022-12-11T05:52:42.604Z,62.92
2022-12-11T05:57:44.702Z,63.20
2022-12-11T06:02:46.437Z,63.29
2022-12-11T06:07:48.148Z,62.87
2022-12-11T06:12:49.778Z,62.89
2022-12-11T06:17:51.383Z,62.78
2022-12-11T06:22:53.025Z,62.57
2022-12-11T06:27:55.004Z,62.44
2022-12-11T06:32:58.885Z,62.47
2022-12-11T06:38:00.559Z,62.58
2022-12-11T06:43:02.426Z,62.46
2022-12-11T06:48:04.589Z,62.53
2022-12-11T06:53:06.337Z,62.65
2022-12-11T06:58:08.892Z,62.57
2022-12-11T07:03:11.116Z,62.48
2022-12-11T07:08:15.153Z,62.63
2022-12-11T07:13:16.786Z,62.72
2022-12-11T07:18:18.429Z,62.71
2022-12-11T07:23:20.592Z,62.70
2022-12-11T07:28:22.605Z,62.98
2022-12-11T07:33:24.320Z,63.05
2022-12-11T07:38:25.980Z,63.11
2022-12-11T07:43:28.116Z,63.42
2022-12-11T07:48:35.996Z,63.76
2022-12-11T07:53:37.659Z,63.08
2022-12-11T07:58:39.404Z,63.02
2022-12-11T08:03:41.005Z,63.08
2022-12-11T08:08:43.139Z,63.37
2022-12-11T08:13:44.866Z,63.43
2022-12-11T08:18:48.239Z,63.42
2022-12-11T08:23:51.903Z,63.03
2022-12-11T08:28:54.185Z,63.09
2022-12-11T08:33:56.869Z,62.93
2022-12-11T08:38:59.042Z,63.35
2022-12-11T08:44:01.817Z,63.19
2022-12-11T08:49:03.586Z,62.94
2022-12-11T08:54:05.190Z,63.06
2022-12-11T08:59:06.885Z,62.83
2022-12-11T09:04:08.490Z,62.60
2022-12-11T09:09:10.079Z,62.65
2022-12-11T09:14:11.653Z,62.38
2022-12-11T09:19:14.475Z,62.27
2022-12-11T09:24:17.271Z,62.24
2022-12-11T09:29:18.923Z,61.80
2022-12-11T09:34:24.804Z,61.64
2022-12-11T09:39:30.784Z,62.14
2022-12-11T09:44:54.274Z,62.04
2022-12-11T09:50:10.466Z,61.68
2022-12-11T09:55:18.383Z,62.08
2022-12-11T10:00:32.127Z,61.80
2022-12-11T10:05:38.397Z,61.91
2022-12-11T10:10:44.309Z,61.41
2022-12-11T10:16:04.079Z,61.19
2022-12-11T10:21:06.207Z,61.22
2022-12-11T10:26:19.353Z,61.36
2022-12-11T10:31:41.298Z,61.28
2022-12-11T10:36:44.095Z,61.38
2022-12-11T10:41:48.842Z,61.08
2022-12-11T10:47:15.273Z,60.42
2022-12-11T10:52:25.923Z,60.71
2022-12-11T10:57:34.199Z,60.69
2022-12-11T11:02:38.748Z,60.86
2022-12-11T11:07:41.033Z,60.81
2022-12-11T11:12:42.698Z,60.95
2022-12-11T11:17:55.492Z,60.70
2022-12-11T11:23:01.805Z,60.42
2022-12-11T11:28:07.947Z,60.79
2022-12-11T11:33:17.712Z,60.32
2022-12-11T11:38:22.895Z,60.55
2022-12-11T11:43:51.603Z,60.04
2022-12-11T11:49:04.312Z,60.16
2022-12-11T11:54:34.802Z,59.67
2022-12-11T11:59:58.631Z,60.17
2022-12-11T12:05:00.364Z,60.14
2022-12-11T12:10:21.573Z,59.87
2022-12-11T12:15:46.977Z,59.87
2022-12-11T12:20:53.460Z,60.10
2022-12-11T12:26:07.099Z,60.63
2022-12-11T12:31:22.560Z,60.03
2022-12-11T12:36:42.721Z,59.82
2022-12-11T12:42:01.353Z,59.65
2022-12-11T12:47:14.904Z,59.42
2022-12-11T12:52:33.879Z,59.57
2022-12-11T12:57:37.161Z,60.10
2022-12-11T13:02:49.380Z,59.23
2022-12-11T13:07:55.687Z,59.65
2022-12-11T13:12:58.276Z,59.46
2022-12-11T13:18:01.899Z,59.87
2022-12-11T13:23:06.534Z,60.06
2022-12-11T13:28:31.335Z,59.87
2022-12-11T13:33:38.720Z,59.42
2022-12-11T13:38:49.304Z,59.59
2022-12-11T13:43:52.345Z,59.74
2022-12-11T13:49:00.922Z,59.74
2022-12-11T13:54:17.931Z,59.64
2022-12-11T13:59:32.347Z,59.38
2022-12-11T14:04:34.789Z,59.95
2022-12-11T14:09:43.569Z,60.38
2022-12-11T14:14:52.066Z,60.14
2022-12-11T14:19:56.231Z,59.81
2022-12-11T14:25:03.169Z,59.68
2022-12-11T14:30:12.499Z,59.59
2022-12-11T14:35:38.685Z,59.80
2022-12-11T14:40:44.429Z,59.98
2022-12-11T14:45:49.849Z,59.96
2022-12-11T14:50:58.441Z,60.13
2022-12-11T14:56:04.812Z,59.71
2022-12-11T15:01:20.907Z,59.90
2022-12-11T15:06:30.820Z,60.16
2022-12-11T15:11:32.894Z,60.00
2022-12-11T15:16:38.278Z,60.19
2022-12-11T15:21:40.034Z,60.37
2022-12-11T15:26:46.132Z,60.53
2022-12-11T15:31:58.436Z,60.57
2022-12-11T15:37:00.020Z,60.81
2022-12-11T15:42:02.533Z,60.72
2022-12-11T15:47:15.536Z,60.75
2022-12-11T15:52:18.475Z,60.69
2022-12-11T15:57:23.913Z,60.95
2022-12-11T16:02:28.003Z,60.85
2022-12-11T16:07:29.875Z,61.02
2022-12-11T16:12:31.566Z,61.01
2022-12-11T16:17:33.195Z,61.38
2022-12-11T16:22:34.834Z,61.57
2022-12-11T16:27:36.571Z,61.77
2022-12-11T16:32:38.235Z,61.81
2022-12-11T16:37:39.895Z,61.74
2022-12-11T16:42:41.599Z,61.93
2022-12-11T16:47:43.401Z,62.05
2022-12-11T16:52:45.686Z,62.16
2022-12-11T16:57:47.407Z,62.42
2022-12-11T17:02:49.114Z,62.61
2022-12-11T17:07:52.308Z,62.65
2022-12-11T17:12:54.122Z,62.72
2022-12-11T17:17:55.864Z,62.76
2022-12-11T17:22:57.511Z,62.70
2022-12-11T17:27:59.193Z,63.08
2022-12-11T17:33:02.849Z,62.36
2022-12-11T17:38:05.033Z,62.63
2022-12-11T17:43:10.437Z,62.86
2022-12-11T17:48:12.540Z,62.75
2022-12-11T17:53:16.848Z,62.78
2022-12-11T17:58:22.049Z,62.74
2022-12-11T18:03:25.419Z,62.78
2022-12-11T18:08:30.145Z,62.66
2022-12-11T18:13:32.626Z,62.69
2022-12-11T18:18:34.853Z,62.58
2022-12-11T18:23:36.492Z,63.10
2022-12-11T18:28:38.227Z,63.50
2022-12-11T18:33:42.139Z,63.57
2022-12-11T18:38:44.199Z,63.48
2022-12-11T18:43:45.977Z,63.16
2022-12-11T18:48:57.191Z,63.48
2022-12-11T18:54:00.216Z,64.18
2022-12-11T18:59:05.706Z,63.87
2022-12-11T19:04:10.954Z,63.77
2022-12-11T19:09:13.816Z,63.36
2022-12-11T19:14:15.765Z,63.30
2022-12-11T19:19:19.928Z,63.49
2022-12-11T19:24:24.947Z,63.76
2022-12-11T19:29:33.762Z,63.72
2022-12-11T19:34:35.536Z,63.84
2022-12-11T19:39:41.046Z,63.96
2022-12-11T19:44:43.522Z,64.15
2022-12-11T19:49:45.719Z,64.19
2022-12-11T19:54:47.318Z,64.14
2022-12-11T19:59:56.962Z,63.90
2022-12-11T20:04:59.386Z,63.81
2022-12-11T20:10:01.149Z,63.74
2022-12-11T20:15:05.113Z,63.90
2022-12-11T20:20:07.219Z,63.78
2022-12-11T20:25:09.732Z,64.04
2022-12-11T20:30:12.517Z,64.30
2022-12-11T20:35:14.444Z,64.22
2022-12-11T20:40:17.048Z,64.85
2022-12-11T20:45:18.698Z,65.25
2022-12-11T20:50:20.285Z,64.99
2022-12-11T20:55:21.874Z,64.90
2022-12-11T21:00:23.600Z,65.03
2022-12-11T21:05:25.188Z,64.65
2022-12-11T21:10:26.774Z,64.58
2022-12-11T21:15:28.720Z,64.26
2022-12-11T21:20:30.324Z,63.91
2022-12-11T21:25:31.939Z,64.17
2022-12-11T21:30:33.632Z,64.14
2022-12-11T21:35:35.295Z,64.25
2022-12-11T21:40:36.920Z,64.16
2022-12-11T21:46:00.393Z,63.95
2022-12-11T21:51:12.396Z,64.08
2022-12-11T21:56:20.719Z,64.24
2022-12-11T22:01:30.724Z,64.29
2022-12-11T22:06:32.539Z,63.98
2022-12-11T22:11:35.346Z,64.14
2022-12-11T22:16:36.991Z,64.02
2022-12-11T22:21:38.658Z,63.73
2022-12-11T22:26:40.511Z,63.60
2022-12-11T22:31:42.173Z,63.69
2022-12-11T22:36:43.817Z,63.73
2022-12-11T22:41:45.566Z,63.52
2022-12-11T22:46:50.293Z,63.58
2022-12-11T22:51:52.393Z,63.64
2022-12-11T22:56:54.001Z,63.66
2022-12-11T23:01:55.652Z,64.06
2022-12-11T23:06:57.528Z,64.05
2022-12-11T23:11:59.157Z,63.92
2022-12-11T23:17:00.777Z,63.97
2022-12-11T23:22:03.102Z,63.82
2022-12-11T23:27:05.090Z,63.80
2022-12-11T23:32:06.737Z,63.79
2022-12-11T23:37:08.682Z,63.72
2022-12-11T23:42:10.286Z,63.95
2022-12-11T23:47:11.977Z,63.94
2022-12-11T23:52:13.657Z,64.01
2022-12-11T23:57:15.248Z,63.88
